sensor_id;sensor_type;location;lat;lon;timestamp;pressure;altitude;pressure_sealevel;temperature;humidity
62203;BME280;48199;49.138;7.414;2022-07-03T00:01:58;98576.06;;;13.01;100.00
62203;BME280;48199;49.138;7.414;2022-07-03T00:04:24;98578.75;;;12.98;100.00
62203;BME280;48199;49.138;7.414;2022-07-03T00:06:49;98582.28;;;13.00;100.00
62203;BME280;48199;49.138;7.414;2022-07-03T00:09:15;98587.56;;;13.00;100.00
62203;BME280;48199;49.138;7.414;2022-07-03T00:11:40;98587.69;;;12.94;100.00
62203;BME280;48199;49.138;7.414;2022-07-03T00:14:06;98586.69;;;13.00;100.00
62203;BME280;48199;49.138;7.414;2022-07-03T00:16:31;98589.31;;;13.00;100.00
62203;BME280;48199;49.138;7.414;2022-07-03T00:18:57;98589.63;;;12.89;100.00
62203;BME280;48199;49.138;7.414;2022-07-03T00:21:45;98590.25;;;12.99;100.00
62203;BME280;48199;49.138;7.414;2022-07-03T00:24:24;98588.06;;;12.82;100.00
62203;BME280;48199;49.138;7.414;2022-07-03T00:26:51;98586.59;;;12.72;100.00
62203;BME280;48199;49.138;7.414;2022-07-03T00:29:20;98592.56;;;12.79;100.00
62203;BME280;48199;49.138;7.414;2022-07-03T00:31:47;98590.69;;;12.82;100.00
62203;BME280;48199;49.138;7.414;2022-07-03T00:34:14;98590.06;;;12.74;100.00
62203;BME280;48199;49.138;7.414;2022-07-03T00:36:40;98590.66;;;12.84;100.00
62203;BME280;48199;49.138;7.414;2022-07-03T00:39:07;98589.81;;;12.83;100.00
62203;BME280;48199;49.138;7.414;2022-07-03T00:41:34;98578.13;;;12.61;100.00
62203;BME280;48199;49.138;7.414;2022-07-03T00:43:59;98590.56;;;12.56;100.00
62203;BME280;48199;49.138;7.414;2022-07-03T00:46:26;98576.75;;;12.48;100.00
62203;BME280;48199;49.138;7.414;2022-07-03T00:48:54;98581.84;;;12.54;100.00
62203;BME280;48199;49.138;7.414;2022-07-03T00:51:24;98581.84;;;12.54;100.00
62203;BME280;48199;49.138;7.414;2022-07-03T00:53:55;98568.69;;;12.53;100.00
62203;BME280;48199;49.138;7.414;2022-07-03T00:56:27;98570.38;;;12.55;100.00
62203;BME280;48199;49.138;7.414;2022-07-03T00:58:56;98566.75;;;12.58;100.00
62203;BME280;48199;49.138;7.414;2022-07-03T01:01:24;98576.56;;;12.54;100.00
62203;BME280;48199;49.138;7.414;2022-07-03T01:06:33;98570.72;;;12.43;100.00
62203;BME280;48199;49.138;7.414;2022-07-03T01:09:03;98578.69;;;12.40;100.00
62203;BME280;48199;49.138;7.414;2022-07-03T01:12:04;98576.22;;;12.34;100.00
62203;BME280;48199;49.138;7.414;2022-07-03T01:14:51;98578.19;;;12.28;100.00
62203;BME280;48199;49.138;7.414;2022-07-03T01:17:24;98577.72;;;12.12;100.00
62203;BME280;48199;49.138;7.414;2022-07-03T01:20:01;98569.22;;;12.01;100.00
62203;BME280;48199;49.138;7.414;2022-07-03T01:22:42;98577.06;;;12.04;100.00
62203;BME280;48199;49.138;7.414;2022-07-03T01:30:31;98580.47;;;12.08;100.00
62203;BME280;48199;49.138;7.414;2022-07-03T01:33:09;98584.25;;;11.98;100.00
62203;BME280;48199;49.138;7.414;2022-07-03T01:35:40;98583.03;;;11.77;100.00
62203;BME280;48199;49.138;7.414;2022-07-03T01:38:11;98581.81;;;11.90;100.00
62203;BME280;48199;49.138;7.414;2022-07-03T01:40:40;98590.78;;;11.83;100.00
62203;BME280;48199;49.138;7.414;2022-07-03T01:43:08;98586.22;;;11.90;100.00
62203;BME280;48199;49.138;7.414;2022-07-03T01:45:53;98588.78;;;11.93;100.00
62203;BME280;48199;49.138;7.414;2022-07-03T01:48:22;98587.16;;;11.87;100.00
62203;BME280;48199;49.138;7.414;2022-07-03T01:50:48;98599.91;;;11.70;100.00
62203;BME280;48199;49.138;7.414;2022-07-03T01:53:16;98597.03;;;11.79;100.00
62203;BME280;48199;49.138;7.414;2022-07-03T01:55:42;98588.69;;;11.61;100.00
62203;BME280;48199;49.138;7.414;2022-07-03T01:58:08;98586.88;;;11.64;100.00
62203;BME280;48199;49.138;7.414;2022-07-03T02:01:08;98591.44;;;11.56;100.00
62203;BME280;48199;49.138;7.414;2022-07-03T02:03:39;98595.72;;;11.60;100.00
62203;BME280;48199;49.138;7.414;2022-07-03T02:06:12;98596.53;;;11.65;100.00
62203;BME280;48199;49.138;7.414;2022-07-03T02:11:17;98582.75;;;11.51;100.00
62203;BME280;48199;49.138;7.414;2022-07-03T02:13:50;98588.03;;;11.51;100.00
62203;BME280;48199;49.138;7.414;2022-07-03T02:16:20;98583.84;;;11.43;100.00
62203;BME280;48199;49.138;7.414;2022-07-03T02:18:54;98588.84;;;11.55;100.00
62203;BME280;48199;49.138;7.414;2022-07-03T02:21:20;98584.59;;;11.49;100.00
62203;BME280;48199;49.138;7.414;2022-07-03T02:24:13;98590.44;;;11.60;100.00
62203;BME280;48199;49.138;7.414;2022-07-03T02:26:41;98584.88;;;11.37;100.00
62203;BME280;48199;49.138;7.414;2022-07-03T02:29:15;98592.81;;;11.36;100.00
62203;BME280;48199;49.138;7.414;2022-07-03T02:31:44;98585.28;;;11.19;100.00
62203;BME280;48199;49.138;7.414;2022-07-03T02:34:14;98588.81;;;11.18;100.00
62203;BME280;48199;49.138;7.414;2022-07-03T02:36:45;98598.34;;;11.24;100.00
62203;BME280;48199;49.138;7.414;2022-07-03T02:39:15;98596.66;;;11.21;100.00
62203;BME280;48199;49.138;7.414;2022-07-03T02:41:46;98594.91;;;11.20;100.00
62203;BME280;48199;49.138;7.414;2022-07-03T02:44:25;98595.84;;;11.18;100.00
62203;BME280;48199;49.138;7.414;2022-07-03T02:47:14;98594.28;;;11.09;100.00
62203;BME280;48199;49.138;7.414;2022-07-03T02:50:05;98595.88;;;11.16;100.00
62203;BME280;48199;49.138;7.414;2022-07-03T02:55:16;98600.34;;;11.14;100.00
62203;BME280;48199;49.138;7.414;2022-07-03T02:57:51;98599.63;;;11.06;100.00
62203;BME280;48199;49.138;7.414;2022-07-03T03:00:22;98605.72;;;11.08;100.00
62203;BME280;48199;49.138;7.414;2022-07-03T03:02:55;98609.25;;;11.07;100.00
62203;BME280;48199;49.138;7.414;2022-07-03T03:11:01;98607.56;;;11.05;100.00
62203;BME280;48199;49.138;7.414;2022-07-03T03:13:31;98632.34;;;10.94;100.00
62203;BME280;48199;49.138;7.414;2022-07-03T03:16:06;98628.59;;;11.06;100.00
62203;BME280;48199;49.138;7.414;2022-07-03T03:18:35;98633.25;;;10.95;100.00
62203;BME280;48199;49.138;7.414;2022-07-03T03:21:04;98635.09;;;10.90;100.00
62203;BME280;48199;49.138;7.414;2022-07-03T03:23:42;98635.88;;;10.95;100.00
62203;BME280;48199;49.138;7.414;2022-07-03T03:26:09;98632.38;;;10.93;100.00
62203;BME280;48199;49.138;7.414;2022-07-03T03:28:35;98641.81;;;11.03;100.00
62203;BME280;48199;49.138;7.414;2022-07-03T03:31:01;98644.59;;;10.97;100.00
62203;BME280;48199;49.138;7.414;2022-07-03T03:33:27;98634.00;;;11.00;100.00
62203;BME280;48199;49.138;7.414;2022-07-03T03:35:53;98636.59;;;11.02;100.00
62203;BME280;48199;49.138;7.414;2022-07-03T03:38:18;98632.94;;;11.07;100.00
62203;BME280;48199;49.138;7.414;2022-07-03T03:40:44;98637.22;;;11.14;100.00
62203;BME280;48199;49.138;7.414;2022-07-03T03:43:10;98636.25;;;11.18;100.00
62203;BME280;48199;49.138;7.414;2022-07-03T03:45:35;98638.16;;;11.10;100.00
62203;BME280;48199;49.138;7.414;2022-07-03T03:48:01;98643.28;;;11.16;100.00
62203;BME280;48199;49.138;7.414;2022-07-03T03:50:26;98646.72;;;11.21;100.00
62203;BME280;48199;49.138;7.414;2022-07-03T03:52:52;98647.63;;;11.19;100.00
62203;BME280;48199;49.138;7.414;2022-07-03T03:55:18;98644.91;;;11.23;100.00
62203;BME280;48199;49.138;7.414;2022-07-03T03:57:43;98648.63;;;11.13;100.00
62203;BME280;48199;49.138;7.414;2022-07-03T04:00:09;98659.03;;;11.19;100.00
62203;BME280;48199;49.138;7.414;2022-07-03T04:02:34;98660.63;;;11.26;100.00
62203;BME280;48199;49.138;7.414;2022-07-03T04:05:00;98664.25;;;11.22;100.00
62203;BME280;48199;49.138;7.414;2022-07-03T04:07:25;98658.09;;;11.22;100.00
62203;BME280;48199;49.138;7.414;2022-07-03T04:09:51;98665.03;;;11.27;100.00
62203;BME280;48199;49.138;7.414;2022-07-03T04:12:16;98670.34;;;11.26;100.00
62203;BME280;48199;49.138;7.414;2022-07-03T04:14:42;98660.38;;;11.38;100.00
62203;BME280;48199;49.138;7.414;2022-07-03T04:17:07;98661.97;;;11.45;100.00
62203;BME280;48199;49.138;7.414;2022-07-03T04:19:33;98656.66;;;11.47;100.00
62203;BME280;48199;49.138;7.414;2022-07-03T04:21:58;98661.91;;;11.48;100.00
62203;BME280;48199;49.138;7.414;2022-07-03T04:24:24;98663.50;;;11.55;100.00
62203;BME280;48199;49.138;7.414;2022-07-03T04:26:49;98666.81;;;11.66;100.00
62203;BME280;48199;49.138;7.414;2022-07-03T04:29:15;98655.19;;;11.73;100.00
62203;BME280;48199;49.138;7.414;2022-07-03T04:31:40;98654.28;;;11.74;100.00
62203;BME280;48199;49.138;7.414;2022-07-03T04:34:05;98662.81;;;11.85;100.00
62203;BME280;48199;49.138;7.414;2022-07-03T04:36:31;98662.44;;;12.67;100.00
62203;BME280;48199;49.138;7.414;2022-07-03T04:38:56;98657.94;;;14.15;96.13
62203;BME280;48199;49.138;7.414;2022-07-03T04:41:22;98655.44;;;15.79;86.41
62203;BME280;48199;49.138;7.414;2022-07-03T04:43:47;98659.09;;;17.01;79.55
62203;BME280;48199;49.138;7.414;2022-07-03T04:46:12;98659.00;;;17.97;74.42
62203;BME280;48199;49.138;7.414;2022-07-03T04:48:38;98672.41;;;18.67;71.63
62203;BME280;48199;49.138;7.414;2022-07-03T04:51:03;98673.69;;;19.27;69.56
62203;BME280;48199;49.138;7.414;2022-07-03T04:53:29;98673.78;;;19.73;67.57
62203;BME280;48199;49.138;7.414;2022-07-03T04:55:54;98665.25;;;19.82;65.62
62203;BME280;48199;49.138;7.414;2022-07-03T04:58:19;98672.81;;;19.74;66.51
62203;BME280;48199;49.138;7.414;2022-07-03T05:00:45;98665.44;;;19.31;67.78
62203;BME280;48199;49.138;7.414;2022-07-03T05:03:11;98666.72;;;18.90;71.14
62203;BME280;48199;49.138;7.414;2022-07-03T05:05:37;98670.59;;;19.82;69.40
62203;BME280;48199;49.138;7.414;2022-07-03T05:08:03;98683.69;;;20.78;65.17
62203;BME280;48199;49.138;7.414;2022-07-03T05:10:28;98688.03;;;21.67;63.41
62203;BME280;48199;49.138;7.414;2022-07-03T05:12:54;98687.81;;;22.12;61.68
62203;BME280;48199;49.138;7.414;2022-07-03T05:15:19;98675.41;;;21.26;64.09
62203;BME280;48199;49.138;7.414;2022-07-03T05:17:45;98675.97;;;21.46;61.73
62203;BME280;48199;49.138;7.414;2022-07-03T05:20:11;98683.38;;;21.84;62.69
62203;BME280;48199;49.138;7.414;2022-07-03T05:22:56;98694.53;;;22.72;60.16
62203;BME280;48199;49.138;7.414;2022-07-03T05:25:22;98688.34;;;23.09;59.42
62203;BME280;48199;49.138;7.414;2022-07-03T05:27:48;98689.06;;;22.73;60.56
62203;BME280;48199;49.138;7.414;2022-07-03T05:30:15;98687.47;;;22.83;59.57
62203;BME280;48199;49.138;7.414;2022-07-03T05:32:41;98695.03;;;23.91;59.41
62203;BME280;48199;49.138;7.414;2022-07-03T05:35:07;98697.22;;;24.58;58.44
62203;BME280;48199;49.138;7.414;2022-07-03T05:37:32;98694.00;;;25.00;57.97
62203;BME280;48199;49.138;7.414;2022-07-03T05:39:58;98698.81;;;25.54;55.97
62203;BME280;48199;49.138;7.414;2022-07-03T05:42:23;98693.06;;;25.69;56.55
62203;BME280;48199;49.138;7.414;2022-07-03T05:44:49;98690.97;;;25.51;57.04
62203;BME280;48199;49.138;7.414;2022-07-03T05:47:14;98693.31;;;25.88;57.59
62203;BME280;48199;49.138;7.414;2022-07-03T05:49:39;98704.53;;;26.48;54.97
62203;BME280;48199;49.138;7.414;2022-07-03T05:52:05;98698.38;;;26.57;54.60
62203;BME280;48199;49.138;7.414;2022-07-03T05:54:30;98704.88;;;26.77;54.69
62203;BME280;48199;49.138;7.414;2022-07-03T05:56:56;98705.28;;;26.93;53.57
62203;BME280;48199;49.138;7.414;2022-07-03T05:59:21;98703.44;;;27.14;53.39
62203;BME280;48199;49.138;7.414;2022-07-03T06:01:47;98699.31;;;27.72;52.26
62203;BME280;48199;49.138;7.414;2022-07-03T06:04:12;98688.88;;;27.37;52.48
62203;BME280;48199;49.138;7.414;2022-07-03T06:06:37;98691.59;;;27.67;52.27
62203;BME280;48199;49.138;7.414;2022-07-03T06:09:03;98694.69;;;28.13;51.64
62203;BME280;48199;49.138;7.414;2022-07-03T06:11:28;98708.25;;;28.72;48.92
62203;BME280;48199;49.138;7.414;2022-07-03T06:13:54;98701.59;;;29.23;48.14
62203;BME280;48199;49.138;7.414;2022-07-03T06:16:19;98700.59;;;29.05;47.12
62203;BME280;48199;49.138;7.414;2022-07-03T06:18:44;98707.13;;;29.70;47.33
62203;BME280;48199;49.138;7.414;2022-07-03T06:21:10;98707.88;;;29.99;45.89
62203;BME280;48199;49.138;7.414;2022-07-03T06:23:36;98716.72;;;30.64;45.43
62203;BME280;48199;49.138;7.414;2022-07-03T06:26:01;98715.13;;;30.89;43.64
62203;BME280;48199;49.138;7.414;2022-07-03T06:28:26;98724.47;;;31.04;43.47
62203;BME280;48199;49.138;7.414;2022-07-03T06:30:52;98719.19;;;31.20;42.14
62203;BME280;48199;49.138;7.414;2022-07-03T06:33:17;98719.19;;;31.20;41.87
62203;BME280;48199;49.138;7.414;2022-07-03T06:35:43;98706.97;;;31.42;42.72
62203;BME280;48199;49.138;7.414;2022-07-03T06:38:09;98711.25;;;30.47;42.37
62203;BME280;48199;49.138;7.414;2022-07-03T06:40:34;98705.25;;;30.07;44.19
62203;BME280;48199;49.138;7.414;2022-07-03T06:43:00;98705.19;;;30.26;43.01
62203;BME280;48199;49.138;7.414;2022-07-03T06:45:25;98708.50;;;30.74;42.77
62203;BME280;48199;49.138;7.414;2022-07-03T06:47:51;98707.53;;;30.75;41.54
62203;BME280;48199;49.138;7.414;2022-07-03T06:50:16;98714.72;;;31.54;41.29
62203;BME280;48199;49.138;7.414;2022-07-03T06:52:42;98716.63;;;31.18;41.26
62203;BME280;48199;49.138;7.414;2022-07-03T06:55:07;98716.63;;;31.01;41.80
62203;BME280;48199;49.138;7.414;2022-07-03T06:57:32;98703.47;;;31.49;39.27
62203;BME280;48199;49.138;7.414;2022-07-03T06:59:58;98709.44;;;31.17;41.51
62203;BME280;48199;49.138;7.414;2022-07-03T07:02:23;98715.13;;;30.89;41.98
62203;BME280;48199;49.138;7.414;2022-07-03T07:04:48;98717.03;;;31.92;39.18
62203;BME280;48199;49.138;7.414;2022-07-03T07:07:14;98723.66;;;31.64;41.11
62203;BME280;48199;49.138;7.414;2022-07-03T07:09:39;98715.66;;;32.14;38.51
62203;BME280;48199;49.138;7.414;2022-07-03T07:12:05;98719.38;;;32.13;40.93
62203;BME280;48199;49.138;7.414;2022-07-03T07:14:31;98717.47;;;32.72;39.43
62203;BME280;48199;49.138;7.414;2022-07-03T07:16:56;98709.34;;;32.13;39.47
62203;BME280;48199;49.138;7.414;2022-07-03T07:19:21;98709.78;;;31.75;40.23
62203;BME280;48199;49.138;7.414;2022-07-03T07:21:47;98712.09;;;32.21;39.33
62203;BME280;48199;49.138;7.414;2022-07-03T07:24:12;98719.94;;;33.32;38.35
62203;BME280;48199;49.138;7.414;2022-07-03T07:26:38;98726.59;;;34.09;38.60
62203;BME280;48199;49.138;7.414;2022-07-03T07:29:03;98721.66;;;33.81;39.10
62203;BME280;48199;49.138;7.414;2022-07-03T07:31:29;98717.22;;;34.04;37.02
62203;BME280;48199;49.138;7.414;2022-07-03T07:33:54;98713.31;;;33.74;37.23
62203;BME280;48199;49.138;7.414;2022-07-03T07:36:19;98719.00;;;34.43;37.28
62203;BME280;48199;49.138;7.414;2022-07-03T07:38:45;98713.31;;;33.90;38.52
62203;BME280;48199;49.138;7.414;2022-07-03T07:41:10;98722.91;;;34.33;36.39
62203;BME280;48199;49.138;7.414;2022-07-03T07:43:35;98709.38;;;33.77;37.91
62203;BME280;48199;49.138;7.414;2022-07-03T07:46:01;98719.44;;;34.00;37.98
62203;BME280;48199;49.138;7.414;2022-07-03T07:48:26;98711.47;;;34.29;36.75
62203;BME280;48199;49.138;7.414;2022-07-03T07:50:51;98709.06;;;33.56;37.27
62203;BME280;48199;49.138;7.414;2022-07-03T07:53:17;98713.13;;;33.76;37.55
62203;BME280;48199;49.138;7.414;2022-07-03T07:55:43;98709.03;;;33.96;36.08
62203;BME280;48199;49.138;7.414;2022-07-03T07:58:08;98717.59;;;34.78;36.02
62203;BME280;48199;49.138;7.414;2022-07-03T08:00:34;98714.91;;;34.70;35.31
62203;BME280;48199;49.138;7.414;2022-07-03T08:02:59;98720.84;;;35.12;34.36
62203;BME280;48199;49.138;7.414;2022-07-03T08:05:43;98723.41;;;35.36;34.17
62203;BME280;48199;49.138;7.414;2022-07-03T08:08:13;98725.47;;;35.57;34.85
62203;BME280;48199;49.138;7.414;2022-07-03T08:10:49;98713.69;;;35.56;34.23
62203;BME280;48199;49.138;7.414;2022-07-03T08:13:17;98715.56;;;35.11;33.70
62203;BME280;48199;49.138;7.414;2022-07-03T08:15:43;98704.94;;;33.92;36.36
62203;BME280;48199;49.138;7.414;2022-07-03T08:18:09;98718.50;;;34.24;36.00
62203;BME280;48199;49.138;7.414;2022-07-03T08:20:36;98719.94;;;34.89;35.54
62203;BME280;48199;49.138;7.414;2022-07-03T08:23:02;98710.91;;;34.80;35.63
62203;BME280;48199;49.138;7.414;2022-07-03T08:25:28;98710.94;;;33.95;35.89
62203;BME280;48199;49.138;7.414;2022-07-03T08:27:55;98712.34;;;34.30;34.31
62203;BME280;48199;49.138;7.414;2022-07-03T08:30:20;98716.59;;;34.32;37.48
62203;BME280;48199;49.138;7.414;2022-07-03T08:32:50;98696.41;;;33.95;35.41
62203;BME280;48199;49.138;7.414;2022-07-03T08:35:16;98713.28;;;34.53;35.75
62203;BME280;48199;49.138;7.414;2022-07-03T08:37:42;98710.88;;;35.19;33.52
62203;BME280;48199;49.138;7.414;2022-07-03T08:40:09;98707.03;;;34.75;33.45
62203;BME280;48199;49.138;7.414;2022-07-03T08:42:43;98708.94;;;35.50;32.53
62203;BME280;48199;49.138;7.414;2022-07-03T08:45:14;98698.72;;;34.60;34.66
62203;BME280;48199;49.138;7.414;2022-07-03T08:47:42;98704.16;;;34.22;34.62
62203;BME280;48199;49.138;7.414;2022-07-03T08:50:10;98689.22;;;34.48;33.51
62203;BME280;48199;49.138;7.414;2022-07-03T08:52:36;98698.13;;;34.73;35.16
62203;BME280;48199;49.138;7.414;2022-07-03T08:55:03;98697.06;;;34.82;34.35
62203;BME280;48199;49.138;7.414;2022-07-03T08:57:30;98697.88;;;34.90;34.10
62203;BME280;48199;49.138;7.414;2022-07-03T08:59:57;98701.38;;;34.46;33.97
62203;BME280;48199;49.138;7.414;2022-07-03T09:02:25;98701.56;;;34.75;33.88
62203;BME280;48199;49.138;7.414;2022-07-03T09:04:50;98697.16;;;34.27;34.25
62203;BME280;48199;49.138;7.414;2022-07-03T09:07:17;98699.63;;;34.53;34.67
62203;BME280;48199;49.138;7.414;2022-07-03T09:09:44;98702.47;;;35.21;33.40
62203;BME280;48199;49.138;7.414;2022-07-03T09:12:10;98704.66;;;35.25;33.90
62203;BME280;48199;49.138;7.414;2022-07-03T09:14:35;98706.81;;;35.38;32.65
62203;BME280;48199;49.138;7.414;2022-07-03T09:17:01;98698.72;;;35.44;32.94
62203;BME280;48199;49.138;7.414;2022-07-03T09:19:44;98690.38;;;35.15;32.52
62203;BME280;48199;49.138;7.414;2022-07-03T09:22:37;98703.31;;;35.66;32.62
62203;BME280;48199;49.138;7.414;2022-07-03T09:25:10;98699.53;;;34.99;33.14
62203;BME280;48199;49.138;7.414;2022-07-03T09:27:39;98704.19;;;34.99;33.14
62203;BME280;48199;49.138;7.414;2022-07-03T09:30:13;98690.88;;;34.96;33.06
62203;BME280;48199;49.138;7.414;2022-07-03T09:32:42;98692.28;;;34.53;33.27
62203;BME280;48199;49.138;7.414;2022-07-03T09:35:12;98685.91;;;35.14;30.81
62203;BME280;48199;49.138;7.414;2022-07-03T09:37:37;98681.34;;;34.53;32.60
62203;BME280;48199;49.138;7.414;2022-07-03T09:40:03;98695.72;;;34.86;34.24
62203;BME280;48199;49.138;7.414;2022-07-03T09:42:29;98682.41;;;35.06;32.98
62203;BME280;48199;49.138;7.414;2022-07-03T09:44:54;98678.78;;;34.52;33.30
62203;BME280;48199;49.138;7.414;2022-07-03T09:47:22;98690.69;;;34.67;33.49
62203;BME280;48199;49.138;7.414;2022-07-03T09:49:56;98686.91;;;34.98;33.15
62203;BME280;48199;49.138;7.414;2022-07-03T09:57:58;98668.94;;;33.08;35.72
62203;BME280;48199;49.138;7.414;2022-07-03T10:02:54;98680.03;;;33.79;35.06
62203;BME280;48199;49.138;7.414;2022-07-03T10:05:24;98664.88;;;33.52;33.28
62203;BME280;48199;49.138;7.414;2022-07-03T10:10:19;98678.47;;;33.84;33.01
62203;BME280;48199;49.138;7.414;2022-07-03T10:12:46;98680.25;;;34.16;33.40
62203;BME280;48199;49.138;7.414;2022-07-03T10:15:12;98679.19;;;34.33;32.37
62203;BME280;48199;49.138;7.414;2022-07-03T10:17:38;98658.91;;;33.25;31.97
62203;BME280;48199;49.138;7.414;2022-07-03T10:20:06;98666.06;;;33.42;34.47
62203;BME280;48199;49.138;7.414;2022-07-03T10:22:35;98674.34;;;34.04;33.10
62203;BME280;48199;49.138;7.414;2022-07-03T10:25:04;98671.00;;;34.25;31.44
62203;BME280;48199;49.138;7.414;2022-07-03T10:27:31;98664.34;;;33.33;34.20
62203;BME280;48199;49.138;7.414;2022-07-03T10:29:57;98656.50;;;33.13;33.00
62203;BME280;48199;49.138;7.414;2022-07-03T10:32:26;98648.56;;;32.54;34.11
62203;BME280;48199;49.138;7.414;2022-07-03T10:34:52;98650.34;;;33.36;34.24
62203;BME280;48199;49.138;7.414;2022-07-03T10:37:19;98661.63;;;33.57;35.90
62203;BME280;48199;49.138;7.414;2022-07-03T10:42:34;98659.25;;;33.62;32.27
62203;BME280;48199;49.138;7.414;2022-07-03T10:45:18;98665.03;;;33.67;33.40
62203;BME280;48199;49.138;7.414;2022-07-03T10:47:50;98662.94;;;33.85;35.06
62203;BME280;48199;49.138;7.414;2022-07-03T10:50:21;98654.81;;;33.13;35.92
62203;BME280;48199;49.138;7.414;2022-07-03T10:52:47;98665.03;;;33.35;35.05
62203;BME280;48199;49.138;7.414;2022-07-03T10:55:13;98656.94;;;32.69;34.73
62203;BME280;48199;49.138;7.414;2022-07-03T10:57:41;98641.47;;;32.28;32.77
62203;BME280;48199;49.138;7.414;2022-07-03T11:00:18;98629.31;;;32.14;32.23
62203;BME280;48199;49.138;7.414;2022-07-03T11:02:48;98641.63;;;32.26;33.63
62203;BME280;48199;49.138;7.414;2022-07-03T11:05:19;98651.63;;;32.59;34.19
62203;BME280;48199;49.138;7.414;2022-07-03T11:13:14;98637.63;;;32.38;34.70
62203;BME280;48199;49.138;7.414;2022-07-03T11:15:42;98626.09;;;31.77;34.17
62203;BME280;48199;49.138;7.414;2022-07-03T11:18:27;98632.88;;;32.48;34.04
62203;BME280;48199;49.138;7.414;2022-07-03T11:25:53;98616.06;;;31.52;37.00
62203;BME280;48199;49.138;7.414;2022-07-03T11:36:10;98615.66;;;31.39;38.87
62203;BME280;48199;49.138;7.414;2022-07-03T11:38:36;98602.41;;;31.44;36.62
62203;BME280;48199;49.138;7.414;2022-07-03T11:41:09;98600.41;;;30.85;36.72
62203;BME280;48199;49.138;7.414;2022-07-03T11:43:35;98589.19;;;30.18;39.27
62203;BME280;48199;49.138;7.414;2022-07-03T11:46:01;98597.97;;;30.30;38.45
62203;BME280;48199;49.138;7.414;2022-07-03T11:48:27;98584.38;;;30.30;35.80
62203;BME280;48199;49.138;7.414;2022-07-03T11:50:59;98596.06;;;30.40;39.01
62203;BME280;48199;49.138;7.414;2022-07-03T11:53:37;98589.50;;;30.50;36.33
62203;BME280;48199;49.138;7.414;2022-07-03T11:56:08;98592.22;;;30.33;36.89
62203;BME280;48199;49.138;7.414;2022-07-03T12:01:26;98585.78;;;30.07;39.20
62203;BME280;48199;49.138;7.414;2022-07-03T12:03:53;98586.97;;;30.04;39.66
62203;BME280;48199;49.138;7.414;2022-07-03T12:06:20;98583.25;;;29.78;39.77
62203;BME280;48199;49.138;7.414;2022-07-03T12:08:45;98574.38;;;29.49;39.13
62203;BME280;48199;49.138;7.414;2022-07-03T12:11:13;98581.16;;;29.63;42.20
62203;BME280;48199;49.138;7.414;2022-07-03T12:13:39;98578.94;;;29.39;42.09
62203;BME280;48199;49.138;7.414;2022-07-03T12:16:10;98568.94;;;28.84;43.51
62203;BME280;48199;49.138;7.414;2022-07-03T12:18:54;98574.09;;;28.77;42.62
62203;BME280;48199;49.138;7.414;2022-07-03T12:21:21;98562.78;;;28.15;43.21
62203;BME280;48199;49.138;7.414;2022-07-03T12:23:49;98570.34;;;28.40;40.29
62203;BME280;48199;49.138;7.414;2022-07-03T12:26:32;98562.69;;;28.55;39.85
62203;BME280;48199;49.138;7.414;2022-07-03T12:29:02;98569.50;;;28.87;40.50
62203;BME280;48199;49.138;7.414;2022-07-03T12:31:29;98571.75;;;29.01;40.15
62203;BME280;48199;49.138;7.414;2022-07-03T12:33:56;98559.34;;;28.99;39.95
62203;BME280;48199;49.138;7.414;2022-07-03T12:36:22;98558.63;;;28.97;39.78
62203;BME280;48199;49.138;7.414;2022-07-03T12:38:57;98570.28;;;29.26;41.02
62203;BME280;48199;49.138;7.414;2022-07-03T12:41:24;98559.25;;;28.81;39.34
62203;BME280;48199;49.138;7.414;2022-07-03T12:43:50;98549.97;;;28.93;39.66
62203;BME280;48199;49.138;7.414;2022-07-03T12:46:25;98555.38;;;29.12;39.72
62203;BME280;48199;49.138;7.414;2022-07-03T12:48:52;98551.69;;;28.75;43.32
62203;BME280;48199;49.138;7.414;2022-07-03T12:51:38;98546.81;;;28.12;43.94
62203;BME280;48199;49.138;7.414;2022-07-03T12:54:04;98547.13;;;28.19;43.02
62203;BME280;48199;49.138;7.414;2022-07-03T12:56:30;98545.41;;;28.37;42.05
62203;BME280;48199;49.138;7.414;2022-07-03T12:58:55;98549.13;;;28.26;43.96
62203;BME280;48199;49.138;7.414;2022-07-03T13:01:39;98534.00;;;28.33;40.37
62203;BME280;48199;49.138;7.414;2022-07-03T13:04:05;98534.31;;;28.49;42.08
62203;BME280;48199;49.138;7.414;2022-07-03T13:06:34;98535.16;;;28.59;42.69
62203;BME280;48199;49.138;7.414;2022-07-03T13:09:04;98524.91;;;28.53;43.14
62203;BME280;48199;49.138;7.414;2022-07-03T13:11:31;98541.84;;;28.65;41.84
62203;BME280;48199;49.138;7.414;2022-07-03T13:14:05;98533.88;;;28.63;43.47
62203;BME280;48199;49.138;7.414;2022-07-03T13:16:36;98525.31;;;28.11;45.02
62203;BME280;48199;49.138;7.414;2022-07-03T13:19:05;98521.59;;;28.21;42.20
62203;BME280;48199;49.138;7.414;2022-07-03T13:21:30;98524.88;;;28.15;43.84
62203;BME280;48199;49.138;7.414;2022-07-03T13:23:56;98521.19;;;28.26;43.37
62203;BME280;48199;49.138;7.414;2022-07-03T13:26:21;98516.66;;;28.45;41.91
62203;BME280;48199;49.138;7.414;2022-07-03T13:28:46;98510.78;;;28.02;45.26
62203;BME280;48199;49.138;7.414;2022-07-03T13:31:12;98520.31;;;27.97;44.28
62203;BME280;48199;49.138;7.414;2022-07-03T13:33:37;98519.47;;;28.06;42.80
62203;BME280;48199;49.138;7.414;2022-07-03T13:36:02;98523.28;;;28.03;43.88
62203;BME280;48199;49.138;7.414;2022-07-03T13:38:28;98518.16;;;28.00;41.92
62203;BME280;48199;49.138;7.414;2022-07-03T13:40:53;98512.31;;;28.05;43.09
62203;BME280;48199;49.138;7.414;2022-07-03T13:43:19;98522.19;;;28.06;44.79
62203;BME280;48199;49.138;7.414;2022-07-03T13:45:44;98512.63;;;28.11;42.91
62203;BME280;48199;49.138;7.414;2022-07-03T13:48:09;98496.88;;;27.67;44.59
62203;BME280;48199;49.138;7.414;2022-07-03T13:50:35;98501.94;;;27.51;45.41
62203;BME280;48199;49.138;7.414;2022-07-03T13:53:00;98498.53;;;27.49;44.70
62203;BME280;48199;49.138;7.414;2022-07-03T13:55:26;98496.47;;;27.32;44.64
62203;BME280;48199;49.138;7.414;2022-07-03T13:57:51;98490.63;;;26.97;48.06